createdAt,value
2023-03-06T00:00:06.799Z,4.45
2023-03-06T00:02:39.568Z,3.85
2023-03-06T00:05:07.180Z,5.03
2023-03-06T00:07:34.614Z,8.38
2023-03-06T00:10:02.103Z,5.43
2023-03-06T00:12:29.573Z,5.43
2023-03-06T00:14:57.023Z,1.98
2023-03-06T00:17:24.543Z,8.50
2023-03-06T00:19:51.958Z,10.50
2023-03-06T00:22:19.423Z,5.05
2023-03-06T00:24:46.913Z,5.88
2023-03-06T00:27:14.344Z,4.75
2023-03-06T00:29:42.274Z,4.68
2023-03-06T00:32:09.791Z,3.22
2023-03-06T00:34:37.255Z,12.05
2023-03-06T00:37:04.751Z,4.25
2023-03-06T00:39:33.427Z,4.65
2023-03-06T00:42:00.926Z,2.53
2023-03-06T00:44:28.365Z,1.20
2023-03-06T00:46:55.840Z,1.50
2023-03-06T00:49:24.418Z,3.05
2023-03-06T00:51:51.860Z,2.72
2023-03-06T00:54:19.684Z,4.85
2023-03-06T00:56:47.147Z,2.75
2023-03-06T00:59:14.629Z,2.58
2023-03-06T01:01:42.149Z,1.67
2023-03-06T01:04:09.729Z,1.27
2023-03-06T01:06:37.367Z,5.88
2023-03-06T01:09:05.474Z,2.13
2023-03-06T01:11:40.238Z,3.75
2023-03-06T01:14:07.746Z,1.50
2023-03-06T01:16:35.278Z,3.22
2023-03-06T01:19:02.775Z,4.40
2023-03-06T01:21:30.332Z,6.68
2023-03-06T01:23:58.558Z,1.52
2023-03-06T01:26:27.565Z,2.33
2023-03-06T01:28:57.424Z,1.48
2023-03-06T01:31:25.366Z,1.20
2023-03-06T01:33:53.056Z,0.82
2023-03-06T01:36:20.553Z,0.35
2023-03-06T01:38:47.996Z,4.28
2023-03-06T01:41:16.061Z,1.55
2023-03-06T01:43:45.419Z,2.95
2023-03-06T01:46:19.183Z,4.25
2023-03-06T01:48:47.811Z,4.68
2023-03-06T01:51:15.795Z,1.40
2023-03-06T01:53:43.718Z,1.63
2023-03-06T01:56:11.969Z,0.52
2023-03-06T01:58:39.592Z,0.98
2023-03-06T02:01:07.111Z,2.05
2023-03-06T02:03:34.624Z,2.28
2023-03-06T02:06:02.119Z,1.38
2023-03-06T02:08:32.201Z,0.88
2023-03-06T02:11:10.160Z,0.90
2023-03-06T02:13:38.103Z,1.38
2023-03-06T02:16:05.700Z,0.85
2023-03-06T02:18:34.272Z,3.85
2023-03-06T02:21:04.551Z,1.33
2023-03-06T02:23:47.365Z,0.68
2023-03-06T02:26:16.059Z,4.00
2023-03-06T02:28:43.759Z,4.95
2023-03-06T02:31:20.922Z,0.75
2023-03-06T02:34:00.784Z,1.05
2023-03-06T02:36:29.989Z,0.13
2023-03-06T02:38:57.999Z,1.25
2023-03-06T02:41:25.829Z,1.13
2023-03-06T02:43:54.142Z,3.35
2023-03-06T02:46:21.652Z,1.45
2023-03-06T02:48:49.193Z,2.67
2023-03-06T02:51:16.665Z,1.92
2023-03-06T02:53:44.480Z,0.85
2023-03-06T02:56:11.963Z,2.15
2023-03-06T02:58:39.747Z,1.45
2023-03-06T03:01:07.521Z,3.33
2023-03-06T03:03:35.654Z,0.35
2023-03-06T03:06:05.440Z,0.80
2023-03-06T03:08:34.941Z,0.43
2023-03-06T03:11:04.437Z,2.17
2023-03-06T03:13:40.614Z,0.15
2023-03-06T03:16:16.253Z,2.33
2023-03-06T03:18:44.616Z,0.77
2023-03-06T03:21:13.691Z,1.42
2023-03-06T03:23:42.632Z,1.85
2023-03-06T03:26:18.588Z,0.65
2023-03-06T03:31:22.090Z,2.50
2023-03-06T03:33:50.679Z,0.40
2023-03-06T03:36:19.921Z,3.40
2023-03-06T03:38:48.324Z,2.17
2023-03-06T03:41:15.903Z,1.45
2023-03-06T03:43:43.831Z,1.95
2023-03-06T03:46:11.560Z,1.63
2023-03-06T03:48:39.582Z,2.22
2023-03-06T03:51:08.665Z,1.77
2023-03-06T03:53:40.048Z,4.00
2023-03-06T03:56:09.909Z,1.70
2023-03-06T03:58:45.259Z,2.13
2023-03-06T04:01:13.190Z,2.47
2023-03-06T04:03:41.197Z,2.30
2023-03-06T04:06:10.512Z,1.33
2023-03-06T04:08:38.817Z,1.10
2023-03-06T04:11:09.300Z,3.40
2023-03-06T04:13:36.824Z,2.88
2023-03-06T04:16:06.179Z,1.70
2023-03-06T04:18:35.670Z,1.35
2023-03-06T04:21:06.031Z,2.90
2023-03-06T04:23:34.124Z,3.83
2023-03-06T04:26:01.655Z,3.22
2023-03-06T04:28:29.450Z,2.17
2023-03-06T04:30:57.932Z,1.45
2023-03-06T04:33:25.612Z,2.65
2023-03-06T04:35:54.600Z,1.63
2023-03-06T04:38:26.819Z,2.10
2023-03-06T04:40:54.409Z,1.55
2023-03-06T04:43:22.133Z,2.42
2023-03-06T04:45:49.645Z,2.58
2023-03-06T04:48:19.962Z,2.30
2023-03-06T04:50:47.648Z,2.95
2023-03-06T04:53:16.711Z,2.42
2023-03-06T04:55:44.144Z,3.80
2023-03-06T04:58:12.327Z,4.03
2023-03-06T05:00:39.792Z,4.07
2023-03-06T05:03:07.282Z,6.20
2023-03-06T05:05:34.739Z,7.45
2023-03-06T05:08:02.199Z,2.95
2023-03-06T05:10:29.657Z,3.38
2023-03-06T05:12:57.160Z,6.88
2023-03-06T05:15:25.640Z,5.57
2023-03-06T05:17:53.127Z,3.72
2023-03-06T05:20:20.719Z,2.55
2023-03-06T05:22:48.153Z,5.75
2023-03-06T05:25:15.626Z,1.52
2023-03-06T05:27:43.294Z,2.50
2023-03-06T05:30:12.997Z,5.13
2023-03-06T05:32:40.540Z,3.60
2023-03-06T05:35:08.337Z,4.35
2023-03-06T05:37:35.813Z,3.35
2023-03-06T05:40:06.616Z,2.05
2023-03-06T05:42:34.095Z,3.67
2023-03-06T05:45:02.612Z,1.17
2023-03-06T05:47:30.080Z,3.72
2023-03-06T05:49:57.568Z,2.13
2023-03-06T05:52:25.099Z,3.25
2023-03-06T05:54:53.581Z,3.20
2023-03-06T05:57:21.725Z,9.43
2023-03-06T05:59:50.002Z,2.58
2023-03-06T06:02:18.166Z,2.42
2023-03-06T06:04:45.676Z,3.40
2023-03-06T06:07:16.801Z,4.28
2023-03-06T06:09:45.670Z,1.05
2023-03-06T06:12:14.012Z,3.58
2023-03-06T06:14:41.462Z,2.30
2023-03-06T06:17:08.946Z,2.55
2023-03-06T06:19:36.482Z,1.27
2023-03-06T06:22:03.941Z,4.35
2023-03-06T06:24:32.153Z,3.92
2023-03-06T06:27:03.302Z,3.13
2023-03-06T06:29:31.347Z,7.72
2023-03-06T06:31:59.404Z,9.77
2023-03-06T06:34:27.068Z,2.25
2023-03-06T06:36:54.597Z,3.03
2023-03-06T06:39:22.990Z,7.85
2023-03-06T06:42:05.424Z,7.72
2023-03-06T06:44:37.570Z,2.78
2023-03-06T06:47:23.560Z,5.90
2023-03-06T06:49:52.867Z,4.32
2023-03-06T06:52:20.518Z,5.10
2023-03-06T06:54:49.188Z,5.60
2023-03-06T06:57:16.749Z,2.90
2023-03-06T06:59:44.196Z,4.55
2023-03-06T07:02:15.985Z,2.80
2023-03-06T07:05:00.426Z,3.97
2023-03-06T07:07:30.587Z,3.22
2023-03-06T07:09:58.074Z,6.75
2023-03-06T07:12:25.534Z,8.05
2023-03-06T07:14:52.973Z,6.47
2023-03-06T07:17:20.405Z,9.07
2023-03-06T07:19:48.221Z,10.27
2023-03-06T07:22:15.793Z,10.52
2023-03-06T07:24:43.214Z,4.13
2023-03-06T07:27:10.679Z,8.30
2023-03-06T07:29:38.123Z,5.50
2023-03-06T07:32:05.664Z,2.97
2023-03-06T07:34:33.197Z,4.18
2023-03-06T07:37:00.732Z,3.70
2023-03-06T07:39:30.056Z,4.38
2023-03-06T07:41:58.637Z,4.53
2023-03-06T07:44:26.124Z,4.63
2023-03-06T07:46:53.748Z,4.15
2023-03-06T07:49:21.305Z,5.65
2023-03-06T07:51:48.705Z,2.72
2023-03-06T07:54:16.207Z,10.10
2023-03-06T07:56:43.696Z,7.85
2023-03-06T07:59:11.665Z,6.22
2023-03-06T08:01:40.217Z,7.57
2023-03-06T08:04:08.502Z,3.22
2023-03-06T08:06:35.958Z,4.72
2023-03-06T08:09:03.589Z,4.38
2023-03-06T08:11:31.371Z,6.15
2023-03-06T08:13:59.118Z,12.63
2023-03-06T08:16:30.454Z,4.22
2023-03-06T08:18:58.208Z,5.72
2023-03-06T08:21:27.308Z,8.77
2023-03-06T08:23:55.069Z,6.03
2023-03-06T08:26:25.494Z,5.95
2023-03-06T08:28:53.761Z,6.40
2023-03-06T08:31:30.032Z,6.60
2023-03-06T08:33:58.967Z,5.90
2023-03-06T08:36:26.533Z,3.50
2023-03-06T08:38:54.016Z,6.35
2023-03-06T08:41:21.562Z,6.35
2023-03-06T08:43:49.249Z,5.88
2023-03-06T08:46:19.310Z,9.10
2023-03-06T08:48:50.069Z,4.53
2023-03-06T08:51:21.803Z,6.22
2023-03-06T08:53:49.336Z,6.13
2023-03-06T08:56:21.744Z,7.40
2023-03-06T08:58:49.310Z,5.78
2023-03-06T09:01:21.595Z,6.05
2023-03-06T09:03:49.763Z,11.98
2023-03-06T09:06:17.328Z,7.70
2023-03-06T09:08:44.892Z,5.70
2023-03-06T09:11:13.450Z,5.55
2023-03-06T09:13:41.083Z,4.05
2023-03-06T09:16:09.215Z,3.63
2023-03-06T09:18:37.165Z,4.72
2023-03-06T09:21:05.054Z,2.50
2023-03-06T09:23:32.516Z,6.07
2023-03-06T09:26:00.616Z,4.28
2023-03-06T09:28:30.121Z,4.05
2023-03-06T09:30:57.627Z,3.08
2023-03-06T09:33:25.591Z,3.38
2023-03-06T09:35:56.916Z,1.70
2023-03-06T09:38:27.811Z,3.05
2023-03-06T09:40:55.251Z,10.05
2023-03-06T09:43:29.445Z,3.90
2023-03-06T09:45:59.926Z,3.05
2023-03-06T09:48:41.270Z,4.03
2023-03-06T09:51:15.536Z,2.88
2023-03-06T09:53:43.184Z,2.55
2023-03-06T09:56:13.612Z,1.98
2023-03-06T09:58:53.028Z,1.58
2023-03-06T10:01:22.816Z,4.20
2023-03-06T10:03:54.292Z,3.85
2023-03-06T10:06:29.848Z,3.00
2023-03-06T10:09:07.734Z,3.97
2023-03-06T10:11:39.925Z,3.40
2023-03-06T10:14:12.770Z,3.27
2023-03-06T10:16:42.383Z,5.78
2023-03-06T10:19:18.327Z,5.05
2023-03-06T10:21:48.536Z,6.15
2023-03-06T10:24:21.592Z,3.00
2023-03-06T10:26:55.872Z,4.47
2023-03-06T10:29:31.733Z,3.80
2023-03-06T10:32:03.722Z,4.82
2023-03-06T10:34:33.293Z,2.92
2023-03-06T10:37:06.223Z,3.50
2023-03-06T10:39:33.665Z,1.92
2023-03-06T10:42:01.127Z,2.30
2023-03-06T10:44:28.682Z,4.82
2023-03-06T10:46:57.529Z,3.00
2023-03-06T10:49:30.180Z,3.55
2023-03-06T10:51:57.721Z,1.50
2023-03-06T10:54:25.340Z,2.85
2023-03-06T10:56:53.248Z,5.93
2023-03-06T10:59:31.147Z,13.40
2023-03-06T11:01:59.596Z,3.40
2023-03-06T11:04:32.129Z,3.67
2023-03-06T11:07:15.092Z,2.88
2023-03-06T11:09:44.498Z,1.30
2023-03-06T11:12:23.470Z,3.67
2023-03-06T11:15:06.232Z,3.58
2023-03-06T11:17:34.551Z,1.55
2023-03-06T11:20:22.516Z,3.88
2023-03-06T11:22:56.196Z,4.57
2023-03-06T11:25:33.254Z,2.15
2023-03-06T11:28:21.021Z,3.13
2023-03-06T11:30:50.872Z,1.40
2023-03-06T11:33:27.709Z,1.90
2023-03-06T11:35:58.879Z,3.38
2023-03-06T11:38:36.431Z,2.35
2023-03-06T11:41:06.618Z,2.03
2023-03-06T11:43:41.053Z,2.22
2023-03-06T11:46:08.506Z,3.22
2023-03-06T11:48:37.561Z,2.38
2023-03-06T11:51:15.181Z,2.97
2023-03-06T11:53:43.135Z,4.43
2023-03-06T11:56:19.868Z,3.30
2023-03-06T11:59:02.635Z,2.63
2023-03-06T12:01:36.899Z,1.58
2023-03-06T12:04:23.119Z,1.77
2023-03-06T12:07:01.768Z,1.63
2023-03-06T12:09:35.294Z,1.65
2023-03-06T12:12:11.822Z,4.00
2023-03-06T12:14:45.357Z,1.65
2023-03-06T12:17:25.088Z,0.88
2023-03-06T12:19:55.673Z,1.33
2023-03-06T12:22:42.255Z,0.47
2023-03-06T12:25:22.839Z,1.58
2023-03-06T12:27:53.366Z,5.68
2023-03-06T12:30:20.823Z,2.78
2023-03-06T12:33:07.316Z,4.47
2023-03-06T12:35:37.787Z,5.78
2023-03-06T12:38:08.280Z,1.65
2023-03-06T12:41:08.326Z,5.72
2023-03-06T12:43:44.854Z,4.22
2023-03-06T12:46:14.681Z,3.55
2023-03-06T12:48:43.704Z,4.03
2023-03-06T12:51:14.391Z,4.10
2023-03-06T12:53:42.315Z,1.98
2023-03-06T12:56:10.289Z,1.20
2023-03-06T12:58:48.376Z,2.92
2023-03-06T13:01:34.994Z,2.20
2023-03-06T13:04:21.424Z,2.70
2023-03-06T13:06:55.777Z,3.17
2023-03-06T13:09:43.177Z,1.92
2023-03-06T13:12:19.814Z,1.73
2023-03-06T13:14:54.164Z,3.92
2023-03-06T13:17:24.884Z,2.47
2023-03-06T13:20:11.216Z,3.75
2023-03-06T13:22:38.692Z,2.65
2023-03-06T13:25:18.341Z,2.00
2023-03-06T13:27:55.145Z,3.10
2023-03-06T13:30:22.828Z,9.60
2023-03-06T13:32:52.806Z,3.85
2023-03-06T13:35:39.221Z,4.40
2023-03-06T13:38:26.624Z,2.45
2023-03-06T13:41:14.046Z,3.17
2023-03-06T13:43:43.878Z,4.05
2023-03-06T13:46:24.745Z,4.65
2023-03-06T13:49:06.411Z,2.70
2023-03-06T13:51:49.126Z,5.70
2023-03-06T13:54:35.767Z,3.35
2023-03-06T13:57:23.459Z,4.15
2023-03-06T14:00:03.114Z,4.10
2023-03-06T14:02:54.732Z,7.93
2023-03-06T14:05:22.527Z,5.30
2023-03-06T14:08:03.794Z,3.97
2023-03-06T14:10:34.106Z,4.97
2023-03-06T14:13:03.232Z,3.63
2023-03-06T14:15:37.268Z,5.95
2023-03-06T14:18:14.186Z,3.83
2023-03-06T14:20:43.930Z,4.03
2023-03-06T14:23:20.767Z,4.07
2023-03-06T14:25:52.052Z,6.68
2023-03-06T14:28:24.242Z,3.45
2023-03-06T14:30:52.859Z,2.03
2023-03-06T14:33:47.606Z,5.97
2023-03-06T14:36:16.982Z,2.47
2023-03-06T14:38:46.680Z,3.15
2023-03-06T14:41:18.181Z,5.28
2023-03-06T14:43:45.657Z,3.67
2023-03-06T14:46:18.347Z,3.45
2023-03-06T14:48:46.872Z,6.00
2023-03-06T14:51:19.176Z,5.22
2023-03-06T14:53:48.610Z,4.73
2023-03-06T14:56:17.831Z,2.38
2023-03-06T14:59:05.509Z,8.43
2023-03-06T15:01:32.987Z,7.53
2023-03-06T15:04:01.456Z,5.47
2023-03-06T15:06:28.970Z,5.85
2023-03-06T15:09:16.686Z,7.68
2023-03-06T15:11:58.369Z,6.15
2023-03-06T15:14:36.741Z,7.07
2023-03-06T15:17:19.677Z,6.22
2023-03-06T15:19:48.530Z,8.02
2023-03-06T15:22:27.547Z,4.95
2023-03-06T15:25:04.656Z,6.50
2023-03-06T15:27:32.218Z,10.00
2023-03-06T15:30:32.763Z,6.95
2023-03-06T15:33:29.913Z,8.30
2023-03-06T15:35:58.964Z,8.57
2023-03-06T15:38:40.037Z,6.35
2023-03-06T15:41:08.508Z,6.43
2023-03-06T15:43:38.336Z,6.78
2023-03-06T15:46:07.773Z,6.50
2023-03-06T15:48:35.550Z,5.80
2023-03-06T15:51:03.858Z,5.60
2023-03-06T15:53:31.460Z,6.07
2023-03-06T15:55:59.373Z,5.07
2023-03-06T15:58:30.142Z,6.32
2023-03-06T16:00:57.691Z,4.68
2023-03-06T16:03:25.257Z,7.38
2023-03-06T16:05:52.689Z,5.15
2023-03-06T16:08:20.241Z,7.20
2023-03-06T16:10:48.002Z,7.90
2023-03-06T16:13:28.756Z,9.35
2023-03-06T16:15:56.584Z,7.75
2023-03-06T16:18:24.192Z,10.82
2023-03-06T16:20:51.642Z,8.15
2023-03-06T16:23:19.152Z,7.30
2023-03-06T16:25:48.667Z,9.65
2023-03-06T16:28:18.495Z,11.68
2023-03-06T16:30:46.110Z,8.63
2023-03-06T16:33:14.464Z,8.93
2023-03-06T16:35:44.431Z,8.40
2023-03-06T16:38:12.062Z,9.43
2023-03-06T16:40:41.435Z,12.30
2023-03-06T16:43:10.334Z,11.32
2023-03-06T16:45:41.980Z,10.98
2023-03-06T16:48:14.569Z,12.55
2023-03-06T16:50:42.221Z,12.95
2023-03-06T16:53:09.727Z,12.88
2023-03-06T16:55:37.238Z,13.32
2023-03-06T16:58:05.098Z,13.13
2023-03-06T17:00:33.423Z,13.25
2023-03-06T17:03:01.611Z,12.82
2023-03-06T17:05:29.784Z,14.32
2023-03-06T17:07:57.327Z,13.43
2023-03-06T17:10:27.294Z,13.68
2023-03-06T17:12:55.966Z,16.08
2023-03-06T17:15:23.491Z,15.35
2023-03-06T17:17:51.713Z,16.08
2023-03-06T17:20:19.595Z,14.68
2023-03-06T17:22:47.153Z,14.15
2023-03-06T17:25:14.743Z,16.17
2023-03-06T17:27:42.221Z,18.00
2023-03-06T17:30:09.979Z,17.08
2023-03-06T17:32:38.263Z,13.10
2023-03-06T17:35:06.012Z,16.73
2023-03-06T17:37:33.576Z,15.18
2023-03-06T17:40:01.122Z,17.00
2023-03-06T17:42:28.677Z,15.85
2023-03-06T17:44:57.390Z,15.80
2023-03-06T17:47:24.889Z,21.15
2023-03-06T17:49:52.363Z,17.15
2023-03-06T17:52:19.789Z,25.65
2023-03-06T17:54:47.240Z,18.67
2023-03-06T17:57:14.706Z,16.20
2023-03-06T17:59:46.740Z,22.55
2023-03-06T18:02:14.226Z,20.50
2023-03-06T18:04:42.276Z,23.90
2023-03-06T18:07:10.305Z,20.83
2023-03-06T18:09:38.600Z,20.83
2023-03-06T18:12:06.177Z,16.70
2023-03-06T18:14:33.661Z,24.83
2023-03-06T18:17:01.265Z,23.55
2023-03-06T18:19:28.814Z,22.67
2023-03-06T18:21:56.286Z,24.85
2023-03-06T18:24:23.767Z,21.02
2023-03-06T18:26:51.262Z,21.80
2023-03-06T18:29:18.767Z,24.70
2023-03-06T18:31:49.866Z,22.63
2023-03-06T18:34:20.196Z,21.83
2023-03-06T18:36:49.250Z,23.55
2023-03-06T18:39:17.218Z,23.38
2023-03-06T18:41:44.741Z,23.63
2023-03-06T18:44:14.139Z,25.17
2023-03-06T18:46:41.877Z,25.70
2023-03-06T18:49:13.159Z,21.48
2023-03-06T18:51:40.775Z,24.38
2023-03-06T18:54:08.680Z,26.80
2023-03-06T18:56:36.240Z,29.08
2023-03-06T18:59:07.204Z,26.90
2023-03-06T19:01:35.058Z,29.35
2023-03-06T19:04:03.062Z,32.03
2023-03-06T19:06:31.012Z,31.88
2023-03-06T19:08:58.802Z,32.90
2023-03-06T19:11:26.947Z,34.47
2023-03-06T19:13:55.063Z,34.92
2023-03-06T19:16:24.746Z,35.05
2023-03-06T19:18:52.684Z,35.88
2023-03-06T19:21:21.519Z,39.47
2023-03-06T19:23:49.292Z,42.13
2023-03-06T19:26:18.605Z,39.03
2023-03-06T19:28:46.440Z,34.75
2023-03-06T19:31:25.167Z,43.17
2023-03-06T19:33:53.465Z,35.60
2023-03-06T19:36:23.707Z,34.55
2023-03-06T19:38:54.129Z,32.90
2023-03-06T19:41:21.781Z,32.00
2023-03-06T19:43:52.145Z,34.40
2023-03-06T19:46:20.068Z,33.33
2023-03-06T19:48:47.637Z,22.05
2023-03-06T19:51:15.290Z,7.43
2023-03-06T19:53:42.878Z,5.80
2023-03-06T19:56:16.604Z,7.22
2023-03-06T19:58:44.167Z,3.13
2023-03-06T20:01:16.012Z,4.97
2023-03-06T20:03:43.905Z,5.03
2023-03-06T20:06:13.733Z,5.32
2023-03-06T20:08:41.279Z,6.22
2023-03-06T20:11:15.812Z,6.25
2023-03-06T20:13:47.564Z,6.65
2023-03-06T20:16:15.819Z,4.60
2023-03-06T20:18:43.492Z,5.35
2023-03-06T20:21:10.959Z,5.15
2023-03-06T20:23:38.527Z,6.25
2023-03-06T20:26:07.284Z,7.18
2023-03-06T20:28:35.375Z,3.42
2023-03-06T20:31:07.562Z,5.20
2023-03-06T20:33:35.341Z,5.90
2023-03-06T20:36:02.982Z,6.40
2023-03-06T20:38:30.517Z,4.15
2023-03-06T20:40:59.736Z,4.88
2023-03-06T20:43:27.312Z,5.13
2023-03-06T20:46:02.696Z,5.70
2023-03-06T20:48:30.603Z,6.93
2023-03-06T20:51:08.539Z,5.85
2023-03-06T20:53:36.391Z,6.93
2023-03-06T20:56:04.016Z,8.02
2023-03-06T20:58:32.606Z,6.10
2023-03-06T21:01:02.310Z,4.60
2023-03-06T21:03:30.262Z,8.55
2023-03-06T21:05:57.732Z,6.03
2023-03-06T21:08:25.371Z,4.47
2023-03-06T21:10:52.860Z,4.97
2023-03-06T21:13:20.321Z,3.40
2023-03-06T21:15:49.901Z,6.35
2023-03-06T21:18:17.588Z,6.88
2023-03-06T21:20:45.066Z,8.32
2023-03-06T21:23:12.579Z,8.95
2023-03-06T21:25:48.055Z,6.32
2023-03-06T21:28:15.730Z,7.28
2023-03-06T21:30:44.248Z,9.52
2023-03-06T21:33:12.026Z,8.32
2023-03-06T21:35:40.368Z,13.32
2023-03-06T21:38:08.087Z,9.40
2023-03-06T21:40:35.654Z,7.43
2023-03-06T21:43:03.970Z,10.32
2023-03-06T21:45:32.119Z,15.02
2023-03-06T21:48:02.843Z,7.05
2023-03-06T21:50:30.331Z,10.80
2023-03-06T21:52:57.898Z,16.52
2023-03-06T21:55:25.385Z,14.10
2023-03-06T21:57:53.453Z,18.58
2023-03-06T22:00:23.191Z,14.50
2023-03-06T22:02:51.274Z,15.10
2023-03-06T22:05:19.063Z,12.93
2023-03-06T22:07:46.532Z,17.92
2023-03-06T22:10:15.602Z,13.75
2023-03-06T22:12:43.166Z,18.27
2023-03-06T22:15:10.872Z,18.77
2023-03-06T22:17:39.717Z,14.55
2023-03-06T22:20:07.283Z,18.23
2023-03-06T22:22:34.733Z,19.20
2023-03-06T22:25:04.246Z,14.57
2023-03-06T22:27:31.725Z,15.82
2023-03-06T22:29:59.232Z,13.00
2023-03-06T22:32:31.677Z,11.55
2023-03-06T22:35:03.939Z,8.13
2023-03-06T22:37:31.974Z,9.57
2023-03-06T22:39:59.501Z,9.43
2023-03-06T22:42:26.995Z,3.97
2023-03-06T22:44:54.419Z,5.10
2023-03-06T22:47:21.909Z,3.78
2023-03-06T22:49:49.358Z,5.45
2023-03-06T22:52:19.547Z,5.72
2023-03-06T22:54:46.996Z,8.30
2023-03-06T22:57:14.550Z,9.70
2023-03-06T22:59:42.106Z,7.28
2023-03-06T23:02:10.211Z,4.78
2023-03-06T23:04:37.750Z,7.15
2023-03-06T23:07:05.321Z,8.98
2023-03-06T23:09:33.130Z,17.13
2023-03-06T23:12:18.959Z,25.55
2023-03-06T23:15:05.295Z,17.17
2023-03-06T23:17:51.939Z,18.60
2023-03-06T23:20:42.032Z,24.35
2023-03-06T23:23:27.712Z,16.55
2023-03-06T23:25:59.261Z,15.88
2023-03-06T23:28:26.950Z,12.90
2023-03-06T23:30:54.546Z,20.38
2023-03-06T23:33:22.119Z,27.00
2023-03-06T23:35:49.661Z,23.27
2023-03-06T23:38:17.199Z,17.30
2023-03-06T23:40:44.739Z,16.27
2023-03-06T23:43:12.268Z,15.40
2023-03-06T23:45:39.776Z,19.33
2023-03-06T23:48:09.138Z,27.75
2023-03-06T23:50:40.119Z,23.25
2023-03-06T23:53:07.613Z,13.27
2023-03-06T23:55:35.037Z,20.77
2023-03-06T23:58:04.740Z,19.40
